createdAt,value
2023-04-21T00:01:40.055Z,10.38
2023-04-21T00:04:07.280Z,10.38
2023-04-21T00:06:34.263Z,10.37
2023-04-21T00:09:01.037Z,10.37
2023-04-21T00:11:27.774Z,10.38
2023-04-21T00:13:55.730Z,10.37
2023-04-21T00:16:22.562Z,10.38
2023-04-21T00:18:49.419Z,10.38
2023-04-21T00:21:16.389Z,10.39
2023-04-21T00:23:43.302Z,10.41
2023-04-21T00:26:10.300Z,10.41
2023-04-21T00:28:37.049Z,10.45
2023-04-21T00:31:03.946Z,10.46
2023-04-21T00:33:30.774Z,10.47
2023-04-21T00:35:59.090Z,10.48
2023-04-21T00:38:25.964Z,10.49
2023-04-21T00:40:52.708Z,10.49
2023-04-21T00:43:19.459Z,10.52
2023-04-21T00:45:48.743Z,10.49
2023-04-21T00:48:15.649Z,10.50
2023-04-21T00:50:44.876Z,10.50
2023-04-21T00:53:12.883Z,10.51
2023-04-21T00:55:39.736Z,10.52
2023-04-21T00:58:07.277Z,10.53
2023-04-21T01:00:34.130Z,10.56
2023-04-21T01:03:02.041Z,10.57
2023-04-21T01:05:28.961Z,10.62
2023-04-21T01:07:55.883Z,10.65
2023-04-21T01:10:22.638Z,10.62
2023-04-21T01:12:49.391Z,10.63
2023-04-21T01:15:17.873Z,10.64
2023-04-21T01:17:45.422Z,10.65
2023-04-21T01:20:15.243Z,10.65
2023-04-21T01:22:42.898Z,10.64
2023-04-21T01:25:10.084Z,10.66
2023-04-21T01:27:37.119Z,10.64
2023-04-21T01:30:06.115Z,10.65
2023-04-21T01:32:33.362Z,10.65
2023-04-21T01:35:00.687Z,10.67
2023-04-21T01:37:31.817Z,10.66
2023-04-21T01:40:04.779Z,10.67
2023-04-21T01:42:33.419Z,10.66
2023-04-21T01:45:00.808Z,10.67
2023-04-21T01:47:27.660Z,10.67
2023-04-21T01:49:54.702Z,10.68
2023-04-21T01:52:21.985Z,10.70
2023-04-21T01:54:49.204Z,10.71
2023-04-21T01:57:16.744Z,10.69
2023-04-21T01:59:44.140Z,10.70
2023-04-21T02:02:11.250Z,10.71
2023-04-21T02:04:38.188Z,10.71
2023-04-21T02:07:04.987Z,10.72
2023-04-21T02:09:32.136Z,10.73
2023-04-21T02:11:58.946Z,10.74
2023-04-21T02:14:26.270Z,10.74
2023-04-21T02:16:53.315Z,10.76
2023-04-21T02:19:20.584Z,10.77
2023-04-21T02:21:47.705Z,10.81
2023-04-21T02:24:14.469Z,10.83
2023-04-21T02:26:43.535Z,10.84
2023-04-21T02:29:10.857Z,10.87
2023-04-21T02:31:54.189Z,10.91
2023-04-21T02:34:24.748Z,10.91
2023-04-21T02:36:52.145Z,10.93
2023-04-21T02:39:26.251Z,10.93
2023-04-21T02:41:56.012Z,10.93
2023-04-21T02:44:22.905Z,10.89
2023-04-21T02:46:49.757Z,10.93
2023-04-21T02:49:16.877Z,10.92
2023-04-21T02:51:44.355Z,10.92
2023-04-21T02:54:11.370Z,10.90
2023-04-21T02:56:38.250Z,10.91
2023-04-21T02:59:05.037Z,10.92
2023-04-21T03:01:31.837Z,10.91
2023-04-21T03:03:58.672Z,10.90
2023-04-21T03:06:25.576Z,10.91
2023-04-21T03:08:53.718Z,10.93
2023-04-21T03:11:34.417Z,10.94
2023-04-21T03:14:14.938Z,10.91
2023-04-21T03:16:54.667Z,10.84
2023-04-21T03:19:32.227Z,10.80
2023-04-21T03:21:59.837Z,10.75
2023-04-21T03:24:37.050Z,10.68
2023-04-21T03:27:19.941Z,10.61
2023-04-21T03:34:38.427Z,10.36
2023-04-21T03:37:05.511Z,10.24
2023-04-21T03:39:32.373Z,10.19
2023-04-21T03:41:59.194Z,10.13
2023-04-21T03:44:27.265Z,10.07
2023-04-21T03:46:54.983Z,9.99
2023-04-21T03:49:22.069Z,9.94
2023-04-21T03:51:49.276Z,9.88
2023-04-21T03:54:16.154Z,9.83
2023-04-21T03:56:42.991Z,9.81
2023-04-21T03:59:09.924Z,9.74
2023-04-21T04:01:36.910Z,9.71
2023-04-21T04:04:04.058Z,9.71
2023-04-21T04:06:32.093Z,9.67
2023-04-21T04:08:59.001Z,9.65
2023-04-21T04:11:25.845Z,9.65
2023-04-21T04:13:52.875Z,9.67
2023-04-21T04:16:19.966Z,9.71
2023-04-21T04:18:46.798Z,9.73
2023-04-21T04:21:13.616Z,9.76
2023-04-21T04:23:40.597Z,9.79
2023-04-21T04:26:07.423Z,9.83
2023-04-21T04:28:34.954Z,9.86
2023-04-21T04:31:03.070Z,9.89
2023-04-21T04:33:29.957Z,9.92
2023-04-21T04:35:58.322Z,9.94
2023-04-21T04:38:25.153Z,10.00
2023-04-21T04:40:58.861Z,9.99
2023-04-21T04:43:25.687Z,9.98
2023-04-21T04:45:52.686Z,9.98
2023-04-21T04:48:19.700Z,9.97
2023-04-21T04:50:46.817Z,9.95
2023-04-21T04:53:13.561Z,9.99
2023-04-21T04:55:40.353Z,9.97
2023-04-21T04:58:07.278Z,10.00
2023-04-21T05:00:34.319Z,9.99
2023-04-21T05:03:01.356Z,9.96
2023-04-21T05:05:28.456Z,9.92
2023-04-21T05:07:55.385Z,9.90
2023-04-21T05:10:22.322Z,9.89
2023-04-21T05:12:49.641Z,9.88
2023-04-21T05:15:18.401Z,9.86
2023-04-21T05:17:45.356Z,9.85
2023-04-21T05:20:12.633Z,9.85
2023-04-21T05:22:40.301Z,9.85
2023-04-21T05:25:08.111Z,9.94
2023-04-21T05:27:35.252Z,10.00
2023-04-21T05:30:02.516Z,10.12
2023-04-21T05:32:29.377Z,10.25
2023-04-21T05:34:56.642Z,10.41
2023-04-21T05:37:23.375Z,10.57
2023-04-21T05:39:50.094Z,10.76
2023-04-21T05:42:18.235Z,10.95
2023-04-21T05:44:45.012Z,11.16
2023-04-21T05:47:11.861Z,11.34
2023-04-21T05:49:38.691Z,11.54
2023-04-21T05:52:05.524Z,11.72
2023-04-21T05:54:33.408Z,11.84
2023-04-21T05:57:01.308Z,11.98
2023-04-21T05:59:28.037Z,12.14
2023-04-21T06:01:54.800Z,12.23
2023-04-21T06:04:22.089Z,12.26
2023-04-21T06:06:49.121Z,12.29
2023-04-21T06:09:15.798Z,12.31
2023-04-21T06:11:42.506Z,12.29
2023-04-21T06:14:09.241Z,12.29
2023-04-21T06:16:36.268Z,12.27
2023-04-21T06:19:03.118Z,12.25
2023-04-21T06:21:29.850Z,12.23
2023-04-21T06:23:56.608Z,12.13
2023-04-21T06:26:23.321Z,12.02
2023-04-21T06:28:50.392Z,11.92
2023-04-21T06:31:17.659Z,11.83
2023-04-21T06:33:44.357Z,11.73
2023-04-21T06:36:11.201Z,11.66
2023-04-21T06:38:39.859Z,11.59
2023-04-21T06:41:07.010Z,11.54
2023-04-21T06:43:33.732Z,11.52
2023-04-21T06:46:00.819Z,11.47
2023-04-21T06:48:27.877Z,11.44
2023-04-21T06:50:54.846Z,11.41
2023-04-21T06:53:21.789Z,11.52
2023-04-21T06:55:49.121Z,11.66
2023-04-21T06:58:15.892Z,11.89
2023-04-21T07:00:42.652Z,12.23
2023-04-21T07:03:09.471Z,12.62
2023-04-21T07:05:36.300Z,12.97
2023-04-21T07:08:03.068Z,13.30
2023-04-21T07:10:29.927Z,13.65
2023-04-21T07:12:56.724Z,14.11
2023-04-21T07:15:23.519Z,14.69
2023-04-21T07:17:50.411Z,15.24
2023-04-21T07:20:18.757Z,15.74
2023-04-21T07:22:45.633Z,16.30
2023-04-21T07:25:12.702Z,16.88
2023-04-21T07:27:39.603Z,17.39
2023-04-21T07:30:07.634Z,17.85
2023-04-21T07:32:35.031Z,18.40
2023-04-21T07:35:02.736Z,19.06
2023-04-21T07:37:29.493Z,19.68
2023-04-21T07:39:56.243Z,20.19
2023-04-21T07:42:23.219Z,20.50
2023-04-21T07:44:50.057Z,20.88
2023-04-21T07:47:16.839Z,21.34
2023-04-21T07:49:43.625Z,21.73
2023-04-21T07:52:10.516Z,22.04
2023-04-21T07:54:37.302Z,22.46
2023-04-21T07:57:04.084Z,22.59
2023-04-21T07:59:30.894Z,22.53
2023-04-21T08:01:57.647Z,22.55
2023-04-21T08:04:24.609Z,22.83
2023-04-21T08:06:51.993Z,23.13
2023-04-21T08:09:19.120Z,23.50
2023-04-21T08:11:47.223Z,23.79
2023-04-21T08:14:14.119Z,23.92
2023-04-21T08:16:42.183Z,24.09
2023-04-21T08:19:10.222Z,24.22
2023-04-21T08:21:37.612Z,24.17
2023-04-21T08:24:04.809Z,24.20
2023-04-21T08:26:33.708Z,24.31
2023-04-21T08:29:03.504Z,24.38
2023-04-21T08:31:31.292Z,24.25
2023-04-21T08:34:01.756Z,24.31
2023-04-21T08:36:30.542Z,24.64
2023-04-21T08:38:58.357Z,25.17
2023-04-21T08:41:26.707Z,25.63
2023-04-21T08:43:53.523Z,25.91
2023-04-21T08:46:21.763Z,26.17
2023-04-21T08:48:48.566Z,26.36
2023-04-21T08:51:23.676Z,26.50
2023-04-21T08:53:50.555Z,26.50
2023-04-21T08:56:17.531Z,26.68
2023-04-21T08:58:44.333Z,26.93
2023-04-21T09:01:11.987Z,27.13
2023-04-21T09:03:39.206Z,27.23
2023-04-21T09:06:09.824Z,27.16
2023-04-21T09:08:52.321Z,27.11
2023-04-21T09:11:19.678Z,27.29
2023-04-21T09:13:46.380Z,27.69
2023-04-21T09:16:22.222Z,28.18
2023-04-21T09:18:51.337Z,28.65
2023-04-21T09:21:20.446Z,28.86
2023-04-21T09:23:53.181Z,29.05
2023-04-21T09:26:25.066Z,29.10
2023-04-21T09:28:53.532Z,28.39
2023-04-21T09:31:28.961Z,27.99
2023-04-21T09:34:00.169Z,27.63
2023-04-21T09:36:30.404Z,27.69
2023-04-21T09:41:33.508Z,28.21
2023-04-21T09:44:01.782Z,28.35
2023-04-21T09:46:33.214Z,28.66
2023-04-21T09:49:02.392Z,29.04
2023-04-21T09:51:49.337Z,29.30
2023-04-21T09:54:29.572Z,29.51
2023-04-21T09:57:02.110Z,29.72
2023-04-21T09:59:44.913Z,29.28
2023-04-21T10:02:13.169Z,28.96
2023-04-21T10:04:43.897Z,28.94
2023-04-21T10:07:12.581Z,29.12
2023-04-21T10:09:54.645Z,28.71
2023-04-21T10:12:23.084Z,28.76
2023-04-21T10:14:54.526Z,29.23
2023-04-21T10:17:26.725Z,29.77
2023-04-21T10:19:59.445Z,30.21
2023-04-21T10:22:35.521Z,30.51
2023-04-21T10:25:04.647Z,30.37
2023-04-21T10:27:43.231Z,29.99
2023-04-21T10:30:26.516Z,29.44
2023-04-21T10:33:06.726Z,28.96
2023-04-21T10:36:03.140Z,29.06
2023-04-21T10:38:42.686Z,29.56
2023-04-21T10:41:33.891Z,30.21
2023-04-21T10:44:09.721Z,30.37
2023-04-21T10:46:45.488Z,30.35
2023-04-21T10:49:23.211Z,30.14
2023-04-21T10:52:05.212Z,30.09
2023-04-21T10:54:42.495Z,30.12
2023-04-21T10:57:18.884Z,29.98
2023-04-21T10:59:47.856Z,29.68
2023-04-21T11:02:17.241Z,29.45
2023-04-21T11:04:48.427Z,29.31
2023-04-21T11:07:18.111Z,29.11
2023-04-21T11:09:48.977Z,29.01
2023-04-21T11:12:18.186Z,28.93
2023-04-21T11:14:49.748Z,29.05
2023-04-21T11:17:19.459Z,29.10
2023-04-21T11:19:53.900Z,29.18
2023-04-21T11:22:23.991Z,29.29
2023-04-21T11:24:57.443Z,29.21
2023-04-21T11:27:27.992Z,28.94
2023-04-21T11:29:54.767Z,28.67
2023-04-21T11:32:21.788Z,28.40
2023-04-21T11:34:48.795Z,28.02
2023-04-21T11:37:27.041Z,27.52
2023-04-21T11:40:01.379Z,26.84
2023-04-21T11:42:28.557Z,26.24
2023-04-21T11:44:57.027Z,25.67
2023-04-21T11:47:26.970Z,25.15
2023-04-21T11:49:57.225Z,24.67
2023-04-21T11:52:25.433Z,24.20
2023-04-21T11:55:00.946Z,23.74
2023-04-21T11:57:30.313Z,23.33
2023-04-21T12:00:02.462Z,22.94
2023-04-21T12:02:31.781Z,22.59
2023-04-21T12:05:08.370Z,22.31
2023-04-21T12:07:42.902Z,21.99
2023-04-21T12:10:16.644Z,21.73
2023-04-21T12:12:44.563Z,21.54
2023-04-21T12:15:17.448Z,21.35
2023-04-21T12:17:50.539Z,21.21
2023-04-21T12:20:20.983Z,21.09
2023-04-21T12:22:49.331Z,20.93
2023-04-21T12:25:16.290Z,20.88
2023-04-21T12:27:57.551Z,20.83
2023-04-21T12:30:24.428Z,20.79
2023-04-21T12:32:52.291Z,20.72
2023-04-21T12:35:19.166Z,20.69
2023-04-21T12:37:46.652Z,20.76
2023-04-21T12:40:13.502Z,20.89
2023-04-21T12:42:40.282Z,21.03
2023-04-21T12:45:07.758Z,21.21
2023-04-21T12:47:36.787Z,21.31
2023-04-21T12:50:04.488Z,21.30
2023-04-21T12:52:31.321Z,21.22
2023-04-21T12:54:58.095Z,21.17
2023-04-21T12:57:24.814Z,21.16
2023-04-21T12:59:51.577Z,21.15
2023-04-21T13:02:18.450Z,21.15
2023-04-21T13:04:45.365Z,21.18
2023-04-21T13:07:12.199Z,21.15
2023-04-21T13:09:39.019Z,21.11
2023-04-21T13:12:05.910Z,21.04
2023-04-21T13:14:32.950Z,20.98
2023-04-21T13:16:59.967Z,20.89
2023-04-21T13:19:26.774Z,20.84
2023-04-21T13:21:54.334Z,20.82
2023-04-21T13:24:21.894Z,20.83
2023-04-21T13:26:48.976Z,20.92
2023-04-21T13:29:16.120Z,20.98
2023-04-21T13:31:43.018Z,20.93
2023-04-21T13:34:09.972Z,20.87
2023-04-21T13:36:36.732Z,20.84
2023-04-21T13:39:04.494Z,20.81
2023-04-21T13:41:31.348Z,20.80
2023-04-21T13:43:58.197Z,20.79
2023-04-21T13:46:25.096Z,20.82
2023-04-21T13:48:51.929Z,20.85
2023-04-21T13:51:20.530Z,20.86
2023-04-21T13:53:47.870Z,20.84
2023-04-21T13:56:15.087Z,20.89
2023-04-21T13:58:42.627Z,20.93
2023-04-21T14:01:09.532Z,21.01
2023-04-21T14:03:36.509Z,21.07
2023-04-21T14:06:03.797Z,21.12
2023-04-21T14:08:30.700Z,21.68
2023-04-21T14:10:57.972Z,21.64
2023-04-21T14:13:37.311Z,21.56
2023-04-21T14:16:07.618Z,21.60
2023-04-21T14:18:34.509Z,21.52
2023-04-21T14:21:01.232Z,21.43
2023-04-21T14:23:28.111Z,21.41
2023-04-21T14:25:55.233Z,21.31
2023-04-21T14:28:22.174Z,21.29
2023-04-21T14:30:48.987Z,21.31
2023-04-21T14:33:16.114Z,21.35
2023-04-21T14:35:43.033Z,21.38
2023-04-21T14:38:09.775Z,21.40
2023-04-21T14:40:36.502Z,21.34
2023-04-21T14:43:03.227Z,21.28
2023-04-21T14:45:30.021Z,21.20
2023-04-21T14:47:56.922Z,21.11
2023-04-21T14:50:23.718Z,21.03
2023-04-21T14:52:50.533Z,20.96
2023-04-21T14:55:17.409Z,20.84
2023-04-21T14:57:44.262Z,20.72
2023-04-21T15:00:12.183Z,20.59
2023-04-21T15:02:41.655Z,20.49
2023-04-21T15:05:08.898Z,20.36
2023-04-21T15:07:36.042Z,20.29
2023-04-21T15:10:03.270Z,20.27
2023-04-21T15:12:30.290Z,20.33
2023-04-21T15:14:56.974Z,20.28
2023-04-21T15:17:24.030Z,20.21
2023-04-21T15:19:51.076Z,20.18
2023-04-21T15:22:18.099Z,20.17
2023-04-21T15:24:45.937Z,20.18
2023-04-21T15:27:12.740Z,20.16
2023-04-21T15:29:39.738Z,20.13
2023-04-21T15:32:06.511Z,19.92
2023-04-21T15:34:33.253Z,19.64
2023-04-21T15:36:59.986Z,19.31
2023-04-21T15:39:26.728Z,19.10
2023-04-21T15:41:55.041Z,18.91
2023-04-21T15:44:21.874Z,18.82
2023-04-21T15:46:48.814Z,18.72
2023-04-21T15:49:15.600Z,18.63
2023-04-21T15:51:42.773Z,18.62
2023-04-21T15:54:10.089Z,18.61
2023-04-21T15:56:37.015Z,18.59
2023-04-21T15:59:04.581Z,18.60
2023-04-21T16:01:31.454Z,18.61
2023-04-21T16:03:59.118Z,18.60
2023-04-21T16:06:26.623Z,18.60
2023-04-21T16:08:53.453Z,18.61
2023-04-21T16:11:20.377Z,18.65
2023-04-21T16:13:47.104Z,18.73
2023-04-21T16:16:13.976Z,18.82
2023-04-21T16:18:40.912Z,18.90
2023-04-21T16:21:08.344Z,18.93
2023-04-21T16:23:35.164Z,18.94
2023-04-21T16:26:02.201Z,18.90
2023-04-21T16:28:29.602Z,18.83
2023-04-21T16:30:56.499Z,18.76
2023-04-21T16:33:23.332Z,18.72
2023-04-21T16:35:52.114Z,18.68
2023-04-21T16:38:19.042Z,18.62
2023-04-21T16:40:45.821Z,18.56
2023-04-21T16:43:12.673Z,18.51
2023-04-21T16:45:39.398Z,18.44
2023-04-21T16:48:06.543Z,18.42
2023-04-21T16:50:33.932Z,18.39
2023-04-21T16:53:00.734Z,18.37
2023-04-21T16:55:28.250Z,18.33
2023-04-21T16:57:55.128Z,18.33
2023-04-21T17:00:21.901Z,18.32
2023-04-21T17:05:16.430Z,18.26
2023-04-21T17:07:44.536Z,18.23
2023-04-21T17:10:11.349Z,18.24
2023-04-21T17:12:38.945Z,18.27
2023-04-21T17:15:07.376Z,18.30
2023-04-21T17:17:43.527Z,18.37
2023-04-21T17:20:13.670Z,18.48
2023-04-21T17:22:42.218Z,18.58
2023-04-21T17:25:10.767Z,18.65
2023-04-21T17:27:40.595Z,18.73
2023-04-21T17:30:09.361Z,18.75
2023-04-21T17:32:37.251Z,18.76
2023-04-21T17:35:05.674Z,18.81
2023-04-21T17:37:33.839Z,18.84
2023-04-21T17:40:02.982Z,18.88
2023-04-21T17:42:30.305Z,18.90
2023-04-21T17:44:57.168Z,18.95
2023-04-21T17:47:24.161Z,18.96
2023-04-21T17:49:51.214Z,19.01
2023-04-21T17:52:18.039Z,19.01
2023-04-21T17:54:45.826Z,19.03
2023-04-21T17:57:13.739Z,19.00
2023-04-21T17:59:40.951Z,18.99
2023-04-21T18:02:07.977Z,19.00
2023-04-21T18:04:35.248Z,19.02
2023-04-21T18:07:03.317Z,19.01
2023-04-21T18:09:30.231Z,19.00
2023-04-21T18:11:58.354Z,18.96
2023-04-21T18:14:25.855Z,18.91
2023-04-21T18:16:52.899Z,18.87
2023-04-21T18:19:19.735Z,18.75
2023-04-21T18:21:46.500Z,18.59
2023-04-21T18:24:13.317Z,18.26
2023-04-21T18:26:40.618Z,17.74
2023-04-21T18:29:09.060Z,17.17
2023-04-21T18:31:36.153Z,16.64
2023-04-21T18:34:03.194Z,16.23
2023-04-21T18:36:32.482Z,15.90
2023-04-21T18:39:00.224Z,15.57
2023-04-21T18:41:27.652Z,15.34
2023-04-21T18:43:54.870Z,15.65
2023-04-21T18:46:22.274Z,15.34
2023-04-21T18:48:49.311Z,15.02
2023-04-21T18:51:16.817Z,14.80
2023-04-21T18:53:43.655Z,14.64
2023-04-21T18:56:10.480Z,14.54
2023-04-21T18:58:37.518Z,14.49
2023-04-21T19:01:04.571Z,14.48
2023-04-21T19:03:31.836Z,14.43
2023-04-21T19:05:58.901Z,14.37
2023-04-21T19:08:38.733Z,14.31
2023-04-21T19:11:10.425Z,14.22
2023-04-21T19:13:37.669Z,14.15
2023-04-21T19:19:40.273Z,13.93
2023-04-21T19:23:42.553Z,13.73
2023-04-21T19:26:37.581Z,13.56
2023-04-21T19:29:49.286Z,13.47
2023-04-21T19:32:19.210Z,13.46
2023-04-21T19:34:53.585Z,13.51
2023-04-21T19:37:35.030Z,13.48
2023-04-21T19:40:15.330Z,13.42
2023-04-21T19:42:47.354Z,13.37
2023-04-21T19:45:18.961Z,13.38
2023-04-21T19:47:51.786Z,13.36
2023-04-21T19:50:21.533Z,13.39
2023-04-21T19:52:56.895Z,13.40
2023-04-21T19:55:27.116Z,13.41
2023-04-21T19:57:55.447Z,13.44
2023-04-21T20:00:26.153Z,13.45
2023-04-21T20:03:03.583Z,13.47
2023-04-21T20:05:40.901Z,13.55
2023-04-21T20:08:07.979Z,13.59
2023-04-21T20:10:43.812Z,13.60
2023-04-21T20:13:16.344Z,13.60
2023-04-21T20:15:47.291Z,13.59
2023-04-21T20:18:18.592Z,13.63
2023-04-21T20:20:48.208Z,13.63
2023-04-21T20:23:24.204Z,13.66
2023-04-21T20:25:51.047Z,13.68
2023-04-21T20:28:23.086Z,13.68
2023-04-21T20:30:54.041Z,13.66
2023-04-21T20:33:20.814Z,13.64
2023-04-21T20:35:47.897Z,13.59
2023-04-21T20:38:15.914Z,13.55
2023-04-21T20:40:46.339Z,13.47
2023-04-21T20:43:13.692Z,13.43
2023-04-21T20:45:41.287Z,13.36
2023-04-21T20:48:11.440Z,13.31
2023-04-21T20:50:46.028Z,13.25
2023-04-21T20:53:17.265Z,13.20
2023-04-21T20:55:44.154Z,13.16
2023-04-21T20:58:11.283Z,13.11
2023-04-21T21:00:38.328Z,13.06
2023-04-21T21:03:09.942Z,13.01
2023-04-21T21:05:40.873Z,12.94
2023-04-21T21:08:08.733Z,12.90
2023-04-21T21:10:35.830Z,12.82
2023-04-21T21:13:02.948Z,12.73
2023-04-21T21:15:32.428Z,12.71
2023-04-21T21:18:02.262Z,12.67
2023-04-21T21:20:33.414Z,12.62
2023-04-21T21:23:00.358Z,12.56
2023-04-21T21:25:31.217Z,12.56
2023-04-21T21:28:01.001Z,12.53
2023-04-21T21:30:36.842Z,12.50
2023-04-21T21:33:03.655Z,12.47
2023-04-21T21:35:33.686Z,12.47
2023-04-21T21:38:03.384Z,12.44
2023-04-21T21:40:30.189Z,12.42
2023-04-21T21:42:56.965Z,12.40
2023-04-21T21:45:23.753Z,12.40
2023-04-21T21:47:53.464Z,12.38
2023-04-21T21:50:28.090Z,12.37
2023-04-21T21:52:54.904Z,12.37
2023-04-21T21:55:25.743Z,12.36
2023-04-21T21:57:55.847Z,12.32
2023-04-21T22:00:22.822Z,12.30
2023-04-21T22:02:49.768Z,12.27
2023-04-21T22:05:17.214Z,12.26
2023-04-21T22:07:44.023Z,12.26
2023-04-21T22:10:11.772Z,12.23
2023-04-21T22:12:38.800Z,12.23
2023-04-21T22:15:06.736Z,12.21
2023-04-21T22:17:37.964Z,12.19
2023-04-21T22:20:08.242Z,12.16
2023-04-21T22:22:35.855Z,12.12
2023-04-21T22:25:02.972Z,12.12
2023-04-21T22:27:31.342Z,12.12
2023-04-21T22:30:00.594Z,12.11
2023-04-21T22:32:30.294Z,12.08
2023-04-21T22:37:31.308Z,11.95
2023-04-21T22:39:58.295Z,11.89
2023-04-21T22:42:25.234Z,11.86
2023-04-21T22:44:52.147Z,11.82
2023-04-21T22:47:19.394Z,11.82
2023-04-21T22:49:46.469Z,11.81
2023-04-21T22:52:13.297Z,11.79
2023-04-21T22:54:41.156Z,11.75
2023-04-21T22:57:08.309Z,11.74
2023-04-21T22:59:35.475Z,11.73
2023-04-21T23:02:02.400Z,11.73
2023-04-21T23:04:29.424Z,11.72
2023-04-21T23:06:56.225Z,11.73
2023-04-21T23:09:23.605Z,11.73
2023-04-21T23:11:50.533Z,11.75
2023-04-21T23:14:17.488Z,11.73
2023-04-21T23:16:44.381Z,11.70
2023-04-21T23:19:11.356Z,11.73
2023-04-21T23:21:39.005Z,11.69
2023-04-21T23:24:06.145Z,11.69
2023-04-21T23:26:32.938Z,11.74
2023-04-21T23:29:00.275Z,11.73
2023-04-21T23:31:27.126Z,11.76
2023-04-21T23:33:53.989Z,11.76
2023-04-21T23:36:21.072Z,11.79
2023-04-21T23:38:47.887Z,11.81
2023-04-21T23:41:14.897Z,11.83
2023-04-21T23:43:41.769Z,11.84
2023-04-21T23:46:08.895Z,11.85
2023-04-21T23:48:35.995Z,11.84
2023-04-21T23:51:02.977Z,11.88
2023-04-21T23:53:29.788Z,11.91
2023-04-21T23:55:56.637Z,11.93
2023-04-21T23:58:23.501Z,11.97
